sensor_id;sensor_type;location;lat;lon;timestamp;pressure;altitude;pressure_sealevel;temperature;humidity
35878;BME280;21982;49.804;24.072;2023-02-26T00:00:12;95754.69;;;2.34;71.97
35878;BME280;21982;49.804;24.072;2023-02-26T00:02:43;95670.56;;;1.78;71.55
35878;BME280;21982;49.804;24.072;2023-02-26T00:05:11;95773.97;;;2.33;71.86
35878;BME280;21982;49.804;24.072;2023-02-26T00:07:37;95689.53;;;1.95;72.25
35878;BME280;21982;49.804;24.072;2023-02-26T00:10:08;95518.44;;;0.86;71.53
35878;BME280;21982;49.804;24.072;2023-02-26T00:12:34;95649.16;;;1.60;71.96
35878;BME280;21982;49.804;24.072;2023-02-26T00:14:59;95610.59;;;1.47;72.05
35878;BME280;21982;49.804;24.072;2023-02-26T00:17:43;95765.00;;;2.50;72.25
35878;BME280;21982;49.804;24.072;2023-02-26T00:20:10;95622.44;;;1.35;71.69
35878;BME280;21982;49.804;24.072;2023-02-26T00:22:38;95775.81;;;2.47;71.87
35878;BME280;21982;49.804;24.072;2023-02-26T00:25:04;95609.25;;;1.28;71.62
35878;BME280;21982;49.804;24.072;2023-02-26T00:27:29;95670.53;;;1.55;71.86
35878;BME280;21982;49.804;24.072;2023-02-26T00:29:55;95564.84;;;0.91;71.31
35878;BME280;21982;49.804;24.072;2023-02-26T00:32:21;95563.03;;;0.91;71.40
35878;BME280;21982;49.804;24.072;2023-02-26T00:34:47;95534.94;;;0.71;71.42
35878;BME280;21982;49.804;24.072;2023-02-26T00:37:44;95777.06;;;2.51;71.25
35878;BME280;21982;49.804;24.072;2023-02-26T00:40:27;95480.00;;;0.57;70.95
35878;BME280;21982;49.804;24.072;2023-02-26T00:42:54;95688.59;;;1.65;71.53
35878;BME280;21982;49.804;24.072;2023-02-26T00:45:19;95323.25;;;-0.62;70.87
35878;BME280;21982;49.804;24.072;2023-02-26T00:50:33;95831.44;;;2.33;71.52
35878;BME280;21982;49.804;24.072;2023-02-26T00:55:25;95725.34;;;1.78;71.01
35878;BME280;21982;49.804;24.072;2023-02-26T00:57:50;95652.91;;;1.34;71.10
35878;BME280;21982;49.804;24.072;2023-02-26T01:00:16;95470.75;;;0.16;70.97
35878;BME280;21982;49.804;24.072;2023-02-26T01:02:43;95789.13;;;2.38;70.85
35878;BME280;21982;49.804;24.072;2023-02-26T01:05:09;95802.34;;;2.36;70.88
35878;BME280;21982;49.804;24.072;2023-02-26T01:47:28;95794.56;;;2.51;70.54
35878;BME280;21982;49.804;24.072;2023-02-26T01:49:44;95524.81;;;0.84;70.63
35878;BME280;21982;49.804;24.072;2023-02-26T01:55:14;95561.25;;;1.15;70.45
35878;BME280;21982;49.804;24.072;2023-02-26T01:57:42;95772.34;;;2.32;69.94
35878;BME280;21982;49.804;24.072;2023-02-26T02:00:08;95786.13;;;2.63;70.06
35878;BME280;21982;49.804;24.072;2023-02-26T02:02:35;95701.22;;;2.07;70.27
35878;BME280;21982;49.804;24.072;2023-02-26T02:05:04;95793.91;;;2.72;70.46
35878;BME280;21982;49.804;24.072;2023-02-26T02:07:31;95805.34;;;2.71;69.59
35878;BME280;21982;49.804;24.072;2023-02-26T02:09:57;95804.66;;;2.77;69.84
35878;BME280;21982;49.804;24.072;2023-02-26T02:18:17;95753.91;;;2.86;69.65
35878;BME280;21982;49.804;24.072;2023-02-26T02:23:46;95797.38;;;2.87;69.63
35878;BME280;21982;49.804;24.072;2023-02-26T02:29:32;95826.13;;;2.87;69.79
35878;BME280;21982;49.804;24.072;2023-02-26T02:32:17;95591.88;;;0.90;69.19
35878;BME280;21982;49.804;24.072;2023-02-26T02:34:52;95721.75;;;1.79;68.97
35878;BME280;21982;49.804;24.072;2023-02-26T02:37:42;95904.34;;;2.74;68.92
35878;BME280;21982;49.804;24.072;2023-02-26T02:40:14;95758.00;;;1.74;68.93
35878;BME280;21982;49.804;24.072;2023-02-26T02:42:46;95908.09;;;2.71;69.48
35878;BME280;21982;49.804;24.072;2023-02-26T02:45:25;95644.84;;;1.13;68.98
35878;BME280;21982;49.804;24.072;2023-02-26T02:47:56;95908.09;;;2.71;68.92
35878;BME280;21982;49.804;24.072;2023-02-26T02:50:35;95876.22;;;2.76;68.89
35878;BME280;21982;49.804;24.072;2023-02-26T02:53:10;95867.66;;;2.82;68.76
35878;BME280;21982;49.804;24.072;2023-02-26T02:55:44;95773.16;;;2.32;68.53
35878;BME280;21982;49.804;24.072;2023-02-26T02:58:23;95607.94;;;1.32;68.89
35878;BME280;21982;49.804;24.072;2023-02-26T03:00:54;95893.41;;;2.93;69.08
35878;BME280;21982;49.804;24.072;2023-02-26T03:03:47;95847.66;;;2.89;68.92
35878;BME280;21982;49.804;24.072;2023-02-26T03:06:14;95567.00;;;1.10;68.63
35878;BME280;21982;49.804;24.072;2023-02-26T03:08:42;95847.03;;;2.87;68.54
35878;BME280;21982;49.804;24.072;2023-02-26T03:11:08;95729.50;;;1.95;69.12
35878;BME280;21982;49.804;24.072;2023-02-26T03:13:34;95533.69;;;0.66;68.50
35878;BME280;21982;49.804;24.072;2023-02-26T03:19:17;95812.38;;;2.24;68.33
35878;BME280;21982;49.804;24.072;2023-02-26T03:21:53;95890.19;;;2.83;69.07
35878;BME280;21982;49.804;24.072;2023-02-26T03:29:56;95693.03;;;1.56;68.83
35878;BME280;21982;49.804;24.072;2023-02-26T03:33:01;95919.53;;;2.93;68.52
35878;BME280;21982;49.804;24.072;2023-02-26T03:38:11;95580.34;;;0.76;69.00
35878;BME280;21982;49.804;24.072;2023-02-26T03:40:45;95829.81;;;2.32;69.01
35878;BME280;21982;49.804;24.072;2023-02-26T03:43:19;95836.66;;;2.33;68.91
35878;BME280;21982;49.804;24.072;2023-02-26T03:45:50;95734.81;;;1.79;69.32
35878;BME280;21982;49.804;24.072;2023-02-26T03:48:20;95935.88;;;2.95;69.48
35878;BME280;21982;49.804;24.072;2023-02-26T03:50:50;95915.78;;;2.95;69.35
35878;BME280;21982;49.804;24.072;2023-02-26T03:56:33;95943.41;;;2.90;68.88
35878;BME280;21982;49.804;24.072;2023-02-26T03:59:04;95681.66;;;1.18;69.55
35878;BME280;21982;49.804;24.072;2023-02-26T04:04:29;95976.63;;;2.81;69.38
35878;BME280;21982;49.804;24.072;2023-02-26T04:06:55;95670.59;;;1.08;69.62
35878;BME280;21982;49.804;24.072;2023-02-26T04:09:21;95716.66;;;1.32;69.59
35878;BME280;21982;49.804;24.072;2023-02-26T04:11:53;96009.38;;;3.00;69.37
35878;BME280;21982;49.804;24.072;2023-02-26T04:14:20;95845.81;;;2.29;69.47
35878;BME280;21982;49.804;24.072;2023-02-26T04:16:46;95457.88;;;-0.25;69.85
35878;BME280;21982;49.804;24.072;2023-02-26T04:19:11;95867.31;;;2.39;69.65
35878;BME280;21982;49.804;24.072;2023-02-26T04:21:37;95979.81;;;2.99;69.40
35878;BME280;21982;49.804;24.072;2023-02-26T04:24:02;95943.19;;;2.77;69.92
35878;BME280;21982;49.804;24.072;2023-02-26T04:26:28;95673.69;;;1.12;69.60
35878;BME280;21982;49.804;24.072;2023-02-26T04:28:53;95689.81;;;1.15;69.74
35878;BME280;21982;49.804;24.072;2023-02-26T04:31:19;95911.88;;;2.68;70.48
35878;BME280;21982;49.804;24.072;2023-02-26T04:33:44;95940.91;;;2.74;70.34
35878;BME280;21982;49.804;24.072;2023-02-26T04:36:10;95873.44;;;2.46;70.21
35878;BME280;21982;49.804;24.072;2023-02-26T04:38:35;95726.25;;;1.71;70.08
35878;BME280;21982;49.804;24.072;2023-02-26T04:41:01;95855.50;;;2.20;70.13
35878;BME280;21982;49.804;24.072;2023-02-26T04:43:26;95705.47;;;1.46;70.16
35878;BME280;21982;49.804;24.072;2023-02-26T04:45:52;95908.63;;;2.66;70.16
35878;BME280;21982;49.804;24.072;2023-02-26T04:48:18;95663.50;;;1.02;70.26
35878;BME280;21982;49.804;24.072;2023-02-26T04:50:45;95643.69;;;0.77;69.38
35878;BME280;21982;49.804;24.072;2023-02-26T04:53:10;95741.81;;;1.48;70.21
35878;BME280;21982;49.804;24.072;2023-02-26T04:55:36;95994.00;;;3.05;70.51
35878;BME280;21982;49.804;24.072;2023-02-26T04:58:02;95828.34;;;1.98;70.42
35878;BME280;21982;49.804;24.072;2023-02-26T05:00:28;96029.53;;;3.14;70.03
35878;BME280;21982;49.804;24.072;2023-02-26T05:02:53;95979.16;;;2.97;70.21
35878;BME280;21982;49.804;24.072;2023-02-26T05:05:19;95732.78;;;1.27;70.12
35878;BME280;21982;49.804;24.072;2023-02-26T05:07:44;95934.97;;;2.57;70.07
35878;BME280;21982;49.804;24.072;2023-02-26T05:10:10;95939.25;;;2.50;69.93
35878;BME280;21982;49.804;24.072;2023-02-26T05:12:36;95904.78;;;2.15;70.09
35878;BME280;21982;49.804;24.072;2023-02-26T05:15:02;95730.84;;;1.21;70.21
35878;BME280;21982;49.804;24.072;2023-02-26T05:17:27;96048.16;;;3.19;70.57
35878;BME280;21982;49.804;24.072;2023-02-26T05:19:53;95724.41;;;1.01;70.22
35878;BME280;21982;49.804;24.072;2023-02-26T05:22:18;95857.28;;;1.89;70.71
35878;BME280;21982;49.804;24.072;2023-02-26T05:24:44;95840.13;;;1.94;70.34
35878;BME280;21982;49.804;24.072;2023-02-26T05:27:11;96060.84;;;3.30;70.22
35878;BME280;21982;49.804;24.072;2023-02-26T05:29:37;96013.63;;;3.01;70.05
35878;BME280;21982;49.804;24.072;2023-02-26T05:32:03;96061.16;;;3.35;70.05
35878;BME280;21982;49.804;24.072;2023-02-26T05:34:28;95822.50;;;1.57;70.02
35878;BME280;21982;49.804;24.072;2023-02-26T05:36:54;96002.53;;;2.68;70.17
35878;BME280;21982;49.804;24.072;2023-02-26T05:39:20;96022.19;;;2.87;70.05
35878;BME280;21982;49.804;24.072;2023-02-26T05:41:45;96026.31;;;2.81;70.17
35878;BME280;21982;49.804;24.072;2023-02-26T05:44:20;96005.19;;;2.52;70.38
35878;BME280;21982;49.804;24.072;2023-02-26T05:46:46;95855.59;;;1.57;70.28
35878;BME280;21982;49.804;24.072;2023-02-26T05:49:11;96055.88;;;2.82;69.87
35878;BME280;21982;49.804;24.072;2023-02-26T05:51:37;96061.41;;;2.87;70.00
35878;BME280;21982;49.804;24.072;2023-02-26T05:54:04;96010.75;;;2.49;69.87
35878;BME280;21982;49.804;24.072;2023-02-26T05:56:30;95833.09;;;1.56;69.47
35878;BME280;21982;49.804;24.072;2023-02-26T05:58:56;95779.91;;;1.18;69.70
35878;BME280;21982;49.804;24.072;2023-02-26T06:01:22;95985.50;;;2.41;69.47
35878;BME280;21982;49.804;24.072;2023-02-26T06:03:48;95899.50;;;1.92;69.20
35878;BME280;21982;49.804;24.072;2023-02-26T06:06:13;96022.41;;;2.38;69.21
35878;BME280;21982;49.804;24.072;2023-02-26T06:08:44;96198.34;;;3.41;69.89
35878;BME280;21982;49.804;24.072;2023-02-26T06:17:05;96177.13;;;3.59;69.64
35878;BME280;21982;49.804;24.072;2023-02-26T06:19:50;96199.19;;;3.64;69.18
35878;BME280;21982;49.804;24.072;2023-02-26T06:22:18;96009.59;;;2.59;69.34
35878;BME280;21982;49.804;24.072;2023-02-26T06:24:44;96167.44;;;3.67;69.35
35878;BME280;21982;49.804;24.072;2023-02-26T06:27:13;96098.13;;;3.32;68.91
35878;BME280;21982;49.804;24.072;2023-02-26T06:29:39;95683.16;;;0.65;69.10
35878;BME280;21982;49.804;24.072;2023-02-26T06:32:07;96160.91;;;3.63;69.33
35878;BME280;21982;49.804;24.072;2023-02-26T06:34:32;96172.03;;;3.65;69.10
35878;BME280;21982;49.804;24.072;2023-02-26T06:36:58;95995.97;;;2.41;68.75
35878;BME280;21982;49.804;24.072;2023-02-26T06:39:23;96050.38;;;2.68;69.33
35878;BME280;21982;49.804;24.072;2023-02-26T06:41:48;96219.91;;;3.74;68.95
35878;BME280;21982;49.804;24.072;2023-02-26T06:44:14;96205.50;;;3.78;69.03
35878;BME280;21982;49.804;24.072;2023-02-26T06:46:39;96040.31;;;2.88;68.70
35878;BME280;21982;49.804;24.072;2023-02-26T06:49:05;96171.03;;;3.89;68.28
35878;BME280;21982;49.804;24.072;2023-02-26T06:51:30;96206.56;;;4.15;67.72
35878;BME280;21982;49.804;24.072;2023-02-26T06:53:56;96229.50;;;4.13;67.57
35878;BME280;21982;49.804;24.072;2023-02-26T06:56:21;96216.13;;;4.08;68.08
35878;BME280;21982;49.804;24.072;2023-02-26T06:58:47;96188.16;;;3.77;67.38
35878;BME280;21982;49.804;24.072;2023-02-26T07:01:13;96201.81;;;3.87;67.55
35878;BME280;21982;49.804;24.072;2023-02-26T07:03:38;96262.69;;;4.20;67.60
35878;BME280;21982;49.804;24.072;2023-02-26T07:06:05;96259.41;;;4.18;67.32
35878;BME280;21982;49.804;24.072;2023-02-26T07:11:08;96232.75;;;3.92;67.42
35878;BME280;21982;49.804;24.072;2023-02-26T07:13:36;96241.19;;;4.02;67.33
35878;BME280;21982;49.804;24.072;2023-02-26T07:16:02;96261.63;;;4.07;67.46
35878;BME280;21982;49.804;24.072;2023-02-26T07:18:28;96232.41;;;3.95;67.62
35878;BME280;21982;49.804;24.072;2023-02-26T07:20:53;96264.09;;;4.08;67.36
35878;BME280;21982;49.804;24.072;2023-02-26T07:23:18;96256.41;;;4.07;67.13
35878;BME280;21982;49.804;24.072;2023-02-26T07:25:44;96258.84;;;4.08;67.18
35878;BME280;21982;49.804;24.072;2023-02-26T07:28:10;96212.25;;;3.95;67.22
35878;BME280;21982;49.804;24.072;2023-02-26T07:30:37;96250.75;;;4.18;67.04
35878;BME280;21982;49.804;24.072;2023-02-26T07:33:07;96209.72;;;4.10;67.07
35878;BME280;21982;49.804;24.072;2023-02-26T07:35:32;96182.72;;;4.10;66.72
35878;BME280;21982;49.804;24.072;2023-02-26T07:37:58;96152.31;;;4.00;66.52
35878;BME280;21982;49.804;24.072;2023-02-26T07:40:23;96232.84;;;4.67;66.02
35878;BME280;21982;49.804;24.072;2023-02-26T07:42:49;96227.25;;;4.70;65.53
35878;BME280;21982;49.804;24.072;2023-02-26T07:45:14;96176.31;;;4.50;65.35
35878;BME280;21982;49.804;24.072;2023-02-26T07:47:43;96244.84;;;4.99;65.01
35878;BME280;21982;49.804;24.072;2023-02-26T07:50:10;96239.88;;;5.04;64.53
35878;BME280;21982;49.804;24.072;2023-02-26T07:52:36;96260.50;;;5.07;64.30
35878;BME280;21982;49.804;24.072;2023-02-26T07:55:01;96263.13;;;5.07;64.13
35878;BME280;21982;49.804;24.072;2023-02-26T07:57:26;96225.38;;;4.79;63.96
35878;BME280;21982;49.804;24.072;2023-02-26T07:59:52;96274.75;;;4.90;64.12
35878;BME280;21982;49.804;24.072;2023-02-26T08:02:17;96232.88;;;4.44;64.08
35878;BME280;21982;49.804;24.072;2023-02-26T08:04:43;96277.00;;;4.78;63.86
35878;BME280;21982;49.804;24.072;2023-02-26T08:07:08;96237.97;;;4.60;63.60
35878;BME280;21982;49.804;24.072;2023-02-26T08:09:34;96186.34;;;4.23;63.85
35878;BME280;21982;49.804;24.072;2023-02-26T08:12:00;96292.47;;;4.88;63.74
35878;BME280;21982;49.804;24.072;2023-02-26T08:14:25;96305.66;;;5.02;63.98
35878;BME280;21982;49.804;24.072;2023-02-26T08:16:51;96260.63;;;4.76;63.36
35878;BME280;21982;49.804;24.072;2023-02-26T08:19:17;96264.44;;;4.74;63.36
35878;BME280;21982;49.804;24.072;2023-02-26T08:21:42;96228.63;;;4.43;62.83
35878;BME280;21982;49.804;24.072;2023-02-26T08:24:10;96294.22;;;4.95;63.17
35878;BME280;21982;49.804;24.072;2023-02-26T08:26:36;96245.44;;;4.71;63.26
35878;BME280;21982;49.804;24.072;2023-02-26T08:29:02;96250.91;;;4.85;62.78
35878;BME280;21982;49.804;24.072;2023-02-26T08:31:28;96298.63;;;5.18;62.11
35878;BME280;21982;49.804;24.072;2023-02-26T08:33:53;96293.72;;;5.15;62.33
35878;BME280;21982;49.804;24.072;2023-02-26T08:36:19;96306.94;;;5.21;61.77
35878;BME280;21982;49.804;24.072;2023-02-26T08:38:47;96329.66;;;5.29;62.10
35878;BME280;21982;49.804;24.072;2023-02-26T08:41:13;96345.63;;;5.42;61.87
35878;BME280;21982;49.804;24.072;2023-02-26T08:43:38;96285.94;;;5.07;61.95
35878;BME280;21982;49.804;24.072;2023-02-26T08:46:07;96317.56;;;5.43;61.62
35878;BME280;21982;49.804;24.072;2023-02-26T08:48:37;96240.69;;;5.04;61.27
35878;BME280;21982;49.804;24.072;2023-02-26T08:51:04;96325.16;;;5.67;60.87
35878;BME280;21982;49.804;24.072;2023-02-26T08:53:53;96349.53;;;5.76;60.69
35878;BME280;21982;49.804;24.072;2023-02-26T08:56:24;96376.19;;;6.02;60.40
35878;BME280;21982;49.804;24.072;2023-02-26T08:58:55;96274.66;;;5.35;59.98
35878;BME280;21982;49.804;24.072;2023-02-26T09:01:21;96383.81;;;6.12;60.27
35878;BME280;21982;49.804;24.072;2023-02-26T09:03:46;96329.34;;;5.76;59.71
35878;BME280;21982;49.804;24.072;2023-02-26T09:06:11;96257.97;;;5.28;59.91
35878;BME280;21982;49.804;24.072;2023-02-26T09:08:37;96318.38;;;5.58;60.03
35878;BME280;21982;49.804;24.072;2023-02-26T09:11:03;96376.47;;;5.92;59.63
35878;BME280;21982;49.804;24.072;2023-02-26T09:13:29;96379.16;;;5.84;59.84
35878;BME280;21982;49.804;24.072;2023-02-26T09:15:55;96411.25;;;5.94;59.59
35878;BME280;21982;49.804;24.072;2023-02-26T09:18:21;96424.28;;;5.88;59.35
35878;BME280;21982;49.804;24.072;2023-02-26T09:20:48;96398.06;;;5.65;59.57
35878;BME280;21982;49.804;24.072;2023-02-26T09:23:13;96416.03;;;5.76;59.51
35878;BME280;21982;49.804;24.072;2023-02-26T09:25:39;96330.47;;;5.15;59.54
35878;BME280;21982;49.804;24.072;2023-02-26T09:28:06;96348.56;;;5.24;59.38
35878;BME280;21982;49.804;24.072;2023-02-26T09:30:31;96409.94;;;5.61;59.06
35878;BME280;21982;49.804;24.072;2023-02-26T09:32:56;96408.16;;;5.76;59.56
35878;BME280;21982;49.804;24.072;2023-02-26T09:35:22;96343.63;;;5.59;59.03
35878;BME280;21982;49.804;24.072;2023-02-26T09:37:47;96409.69;;;6.29;58.86
35878;BME280;21982;49.804;24.072;2023-02-26T09:40:29;96392.56;;;6.48;58.55
35878;BME280;21982;49.804;24.072;2023-02-26T09:46:09;96412.06;;;6.39;57.55
35878;BME280;21982;49.804;24.072;2023-02-26T09:48:37;96383.44;;;6.00;57.83
35878;BME280;21982;49.804;24.072;2023-02-26T09:51:04;96381.00;;;5.98;57.65
35878;BME280;21982;49.804;24.072;2023-02-26T09:53:37;96423.56;;;6.38;56.66
35878;BME280;21982;49.804;24.072;2023-02-26T09:56:23;96429.28;;;6.27;56.79
35878;BME280;21982;49.804;24.072;2023-02-26T09:58:50;96433.03;;;6.18;57.47
35878;BME280;21982;49.804;24.072;2023-02-26T10:01:27;96427.50;;;6.13;57.23
35878;BME280;21982;49.804;24.072;2023-02-26T10:06:34;96408.28;;;6.12;57.40
35878;BME280;21982;49.804;24.072;2023-02-26T10:09:24;96424.38;;;6.53;57.00
35878;BME280;21982;49.804;24.072;2023-02-26T10:12:08;96423.53;;;6.67;56.82
35878;BME280;21982;49.804;24.072;2023-02-26T10:15:01;96435.56;;;6.77;56.00
35878;BME280;21982;49.804;24.072;2023-02-26T10:22:59;96459.59;;;5.70;56.60
35878;BME280;21982;49.804;24.072;2023-02-26T10:25:38;96487.06;;;5.60;56.86
35878;BME280;21982;49.804;24.072;2023-02-26T10:28:09;96492.81;;;5.41;57.03
35878;BME280;21982;49.804;24.072;2023-02-26T10:31:15;96476.00;;;5.04;57.26
35878;BME280;21982;49.804;24.072;2023-02-26T10:34:22;96425.91;;;4.68;57.52
35878;BME280;21982;49.804;24.072;2023-02-26T10:36:57;96490.22;;;5.18;57.39
35878;BME280;21982;49.804;24.072;2023-02-26T10:39:36;96399.34;;;4.40;58.58
35878;BME280;21982;49.804;24.072;2023-02-26T10:42:11;96495.38;;;5.26;57.88
35878;BME280;21982;49.804;24.072;2023-02-26T10:47:40;96413.97;;;4.88;57.28
35878;BME280;21982;49.804;24.072;2023-02-26T10:50:12;96481.91;;;5.52;57.53
35878;BME280;21982;49.804;24.072;2023-02-26T10:52:41;96491.03;;;5.79;57.30
35878;BME280;21982;49.804;24.072;2023-02-26T10:55:31;96504.84;;;5.95;56.87
35878;BME280;21982;49.804;24.072;2023-02-26T10:58:16;96509.94;;;5.97;56.25
35878;BME280;21982;49.804;24.072;2023-02-26T11:00:48;96404.38;;;5.41;56.03
35878;BME280;21982;49.804;24.072;2023-02-26T11:03:17;96505.50;;;5.97;57.14
35878;BME280;21982;49.804;24.072;2023-02-26T11:05:44;96508.34;;;6.40;56.57
35878;BME280;21982;49.804;24.072;2023-02-26T11:10:51;96513.03;;;6.89;55.06
35878;BME280;21982;49.804;24.072;2023-02-26T11:13:17;96454.38;;;6.59;54.15
35878;BME280;21982;49.804;24.072;2023-02-26T11:15:50;96515.81;;;7.02;53.75
35878;BME280;21982;49.804;24.072;2023-02-26T11:18:20;96485.03;;;6.66;53.66
35878;BME280;21982;49.804;24.072;2023-02-26T11:20:47;96367.91;;;5.61;54.03
35878;BME280;21982;49.804;24.072;2023-02-26T11:23:16;96436.72;;;5.94;53.45
35878;BME280;21982;49.804;24.072;2023-02-26T11:25:44;96537.47;;;6.38;54.06
35878;BME280;21982;49.804;24.072;2023-02-26T11:28:24;96533.28;;;6.15;53.45
35878;BME280;21982;49.804;24.072;2023-02-26T11:30:53;96522.44;;;5.95;55.01
35878;BME280;21982;49.804;24.072;2023-02-26T11:33:26;96530.25;;;6.03;54.27
35878;BME280;21982;49.804;24.072;2023-02-26T11:35:55;96525.16;;;6.01;53.92
35878;BME280;21982;49.804;24.072;2023-02-26T11:38:25;96408.13;;;5.01;54.05
35878;BME280;21982;49.804;24.072;2023-02-26T11:40:55;96553.03;;;5.88;53.78
35878;BME280;21982;49.804;24.072;2023-02-26T11:43:23;96479.63;;;5.26;54.10
35878;BME280;21982;49.804;24.072;2023-02-26T11:45:53;96531.91;;;5.35;54.45
35878;BME280;21982;49.804;24.072;2023-02-26T11:48:27;96576.03;;;5.63;54.21
35878;BME280;21982;49.804;24.072;2023-02-26T11:50:58;96569.47;;;5.59;54.41
35878;BME280;21982;49.804;24.072;2023-02-26T11:53:29;96567.50;;;5.61;54.31
35878;BME280;21982;49.804;24.072;2023-02-26T11:56:25;96566.50;;;5.62;54.29
35878;BME280;21982;49.804;24.072;2023-02-26T11:58:52;96579.50;;;5.55;54.10
35878;BME280;21982;49.804;24.072;2023-02-26T12:01:19;96486.00;;;4.78;53.84
35878;BME280;21982;49.804;24.072;2023-02-26T12:03:47;96576.69;;;5.34;53.86
35878;BME280;21982;49.804;24.072;2023-02-26T12:06:16;96578.22;;;5.28;53.76
35878;BME280;21982;49.804;24.072;2023-02-26T12:08:42;96384.31;;;3.95;54.21
35878;BME280;21982;49.804;24.072;2023-02-26T12:11:57;96595.00;;;5.19;54.09
35878;BME280;21982;49.804;24.072;2023-02-26T12:14:16;96514.56;;;4.64;54.30
35878;BME280;21982;49.804;24.072;2023-02-26T12:19:38;96597.03;;;5.01;54.11
35878;BME280;21982;49.804;24.072;2023-02-26T12:22:29;96588.59;;;4.83;54.41
35878;BME280;21982;49.804;24.072;2023-02-26T12:35:48;96617.34;;;4.52;55.39
35878;BME280;21982;49.804;24.072;2023-02-26T12:38:23;96613.47;;;4.40;55.20
35878;BME280;21982;49.804;24.072;2023-02-26T12:41:02;96621.97;;;4.33;55.51
35878;BME280;21982;49.804;24.072;2023-02-26T12:48:59;96639.84;;;4.06;55.71
35878;BME280;21982;49.804;24.072;2023-02-26T12:54:19;96644.75;;;4.00;55.75
35878;BME280;21982;49.804;24.072;2023-02-26T13:10:38;96674.41;;;4.25;55.42
35878;BME280;21982;49.804;24.072;2023-02-26T13:21:59;96670.13;;;4.16;56.18
35878;BME280;21982;49.804;24.072;2023-02-26T13:24:29;96690.28;;;4.32;56.44
35878;BME280;21982;49.804;24.072;2023-02-26T13:27:00;96692.91;;;4.48;55.85
35878;BME280;21982;49.804;24.072;2023-02-26T13:29:34;96697.16;;;4.57;55.87
35878;BME280;21982;49.804;24.072;2023-02-26T13:37:45;96678.81;;;4.33;55.68
35878;BME280;21982;49.804;24.072;2023-02-26T13:54:04;96669.97;;;4.50;56.47
35878;BME280;21982;49.804;24.072;2023-02-26T13:59:04;96729.09;;;4.69;56.49
35878;BME280;21982;49.804;24.072;2023-02-26T14:01:56;96668.81;;;4.28;56.72
35878;BME280;21982;49.804;24.072;2023-02-26T14:07:03;96736.97;;;4.69;56.67
35878;BME280;21982;49.804;24.072;2023-02-26T14:09:59;96666.38;;;4.19;56.77
35878;BME280;21982;49.804;24.072;2023-02-26T14:20:19;96741.75;;;4.41;57.00
35878;BME280;21982;49.804;24.072;2023-02-26T14:28:41;96657.09;;;3.50;57.29
35878;BME280;21982;49.804;24.072;2023-02-26T14:33:46;96579.75;;;2.89;57.59
35878;BME280;21982;49.804;24.072;2023-02-26T14:36:45;96668.53;;;3.32;58.06
35878;BME280;21982;49.804;24.072;2023-02-26T14:39:20;96691.44;;;3.39;58.15
35878;BME280;21982;49.804;24.072;2023-02-26T14:41:48;96771.25;;;3.85;58.29
35878;BME280;21982;49.804;24.072;2023-02-26T14:44:17;96667.13;;;3.12;58.56
35878;BME280;21982;49.804;24.072;2023-02-26T14:46:45;96687.63;;;3.25;58.95
35878;BME280;21982;49.804;24.072;2023-02-26T14:49:24;96790.41;;;3.85;58.34
35878;BME280;21982;49.804;24.072;2023-02-26T15:00:10;96792.00;;;3.70;58.71
35878;BME280;21982;49.804;24.072;2023-02-26T15:05:30;96813.75;;;3.62;59.36
35878;BME280;21982;49.804;24.072;2023-02-26T15:13:57;96819.69;;;3.39;59.15
35878;BME280;21982;49.804;24.072;2023-02-26T15:16:44;96824.13;;;3.20;59.59
35878;BME280;21982;49.804;24.072;2023-02-26T15:20:44;96837.88;;;3.22;59.77
35878;BME280;21982;49.804;24.072;2023-02-26T15:25:33;96805.44;;;2.89;59.50
35878;BME280;21982;49.804;24.072;2023-02-26T15:28:01;96825.91;;;2.94;60.34
35878;BME280;21982;49.804;24.072;2023-02-26T15:30:28;96702.56;;;2.11;60.25
35878;BME280;21982;49.804;24.072;2023-02-26T15:32:56;96861.09;;;2.99;60.44
35878;BME280;21982;49.804;24.072;2023-02-26T15:35:22;96897.41;;;2.85;60.24
35878;BME280;21982;49.804;24.072;2023-02-26T15:37:56;96851.78;;;2.79;60.17
35878;BME280;21982;49.804;24.072;2023-02-26T15:40:23;96696.47;;;1.67;60.45
35878;BME280;21982;49.804;24.072;2023-02-26T15:42:52;96671.31;;;1.48;61.10
35878;BME280;21982;49.804;24.072;2023-02-26T15:45:51;96804.06;;;2.24;60.57
35878;BME280;21982;49.804;24.072;2023-02-26T15:48:30;96894.75;;;2.77;61.16
35878;BME280;21982;49.804;24.072;2023-02-26T15:51:00;96687.81;;;1.39;60.86
35878;BME280;21982;49.804;24.072;2023-02-26T15:53:33;96825.94;;;2.23;60.74
35878;BME280;21982;49.804;24.072;2023-02-26T15:56:03;96821.22;;;2.09;60.75
35878;BME280;21982;49.804;24.072;2023-02-26T16:01:00;96888.44;;;2.34;60.17
35878;BME280;21982;49.804;24.072;2023-02-26T16:03:32;96933.13;;;2.58;61.06
35878;BME280;21982;49.804;24.072;2023-02-26T16:05:58;96899.47;;;2.28;61.24
35878;BME280;21982;49.804;24.072;2023-02-26T16:08:24;96907.22;;;2.20;60.78
35878;BME280;21982;49.804;24.072;2023-02-26T16:10:51;96952.97;;;2.51;61.35
35878;BME280;21982;49.804;24.072;2023-02-26T16:13:27;96916.88;;;2.37;61.21
35878;BME280;21982;49.804;24.072;2023-02-26T16:15:57;96957.59;;;2.57;60.89
35878;BME280;21982;49.804;24.072;2023-02-26T16:18:24;96973.59;;;2.54;61.15
35878;BME280;21982;49.804;24.072;2023-02-26T16:20:54;96836.81;;;1.73;60.73
35878;BME280;21982;49.804;24.072;2023-02-26T16:23:24;96981.03;;;2.49;60.68
35878;BME280;21982;49.804;24.072;2023-02-26T16:25:55;96935.94;;;2.20;61.38
35878;BME280;21982;49.804;24.072;2023-02-26T16:28:32;96994.19;;;2.57;60.94
35878;BME280;21982;49.804;24.072;2023-02-26T16:31:02;96897.41;;;2.04;60.94
35878;BME280;21982;49.804;24.072;2023-02-26T16:33:32;96854.50;;;1.79;61.26
35878;BME280;21982;49.804;24.072;2023-02-26T16:36:10;96933.19;;;2.21;60.59
35878;BME280;21982;49.804;24.072;2023-02-26T16:38:45;96865.13;;;1.68;60.67
35878;BME280;21982;49.804;24.072;2023-02-26T16:41:12;97009.38;;;2.44;61.12
35878;BME280;21982;49.804;24.072;2023-02-26T16:46:22;97011.66;;;2.29;61.65
35878;BME280;21982;49.804;24.072;2023-02-26T16:48:57;96996.66;;;2.04;61.60